Time;durP1;ratioP1;P1;durP2;ratioP2;P2;SDS_P1;SDS_P2;PMS_P1;PMS_P2;Temp;Humidity;BMP_temperature;BMP_pressure;BME280_temperature;BME280_humidity;BME280_pressure;Samples;Min_cycle;Max_cycle;Signal;HPM_P1;HPM_P2
2024/01/26 00:00:38;;;;;;;1.25;1.25;;;12.40;99.90;;;;;;5112590;27;20126;-92
2024/01/26 00:03:04;;;;;;;1.27;1.27;;;11.40;99.90;;;;;;5095585;27;20126;-91
2024/01/26 00:05:30;;;;;;;1.27;1.27;;;11.80;99.90;;;;;;5095637;27;20134;-90
2024/01/26 00:07:56;;;;;;;1.20;1.20;;;11.50;99.90;;;;;;5095138;27;20121;-90
2024/01/26 00:10:22;;;;;;;1.25;1.25;;;11.60;99.90;;;;;;5111262;27;20512;-91
2024/01/26 00:12:48;;;;;;;1.27;1.27;;;12.00;99.90;;;;;;5091227;27;20083;-90
2024/01/26 00:15:14;;;;;;;1.50;1.42;;;12.30;99.90;;;;;;5111146;27;20074;-91
2024/01/26 00:17:40;;;;;;;1.23;1.23;;;12.50;99.90;;;;;;5111508;27;20043;-90
2024/01/26 00:20:06;;;;;;;1.33;1.33;;;12.60;99.90;;;;;;5109658;27;20109;-90
2024/01/26 00:22:32;;;;;;;1.33;1.33;;;12.40;99.90;;;;;;5091658;27;20044;-89
2024/01/26 00:25:00;;;;;;;1.30;1.30;;;11.90;99.90;;;;;;5092889;27;20045;-91
2024/01/26 00:27:26;;;;;;;1.33;1.33;;;12.60;99.90;;;;;;5110830;27;20121;-88
2024/01/26 00:29:52;;;;;;;1.20;1.20;;;12.40;99.90;;;;;;5094823;27;20131;-90
2024/01/26 00:32:17;;;;;;;1.38;1.38;;;11.50;99.90;;;;;;5099492;27;20043;-91
2024/01/26 00:34:43;;;;;;;1.30;1.30;;;12.00;99.90;;;;;;5109084;27;20099;-89
2024/01/26 00:37:09;;;;;;;1.30;1.30;;;11.70;99.90;;;;;;5091697;27;20031;-90
2024/01/26 00:39:35;;;;;;;1.33;1.33;;;12.20;99.90;;;;;;5094814;27;20127;-89
2024/01/26 00:42:04;;;;;;;1.30;1.30;;;11.90;99.90;;;;;;5095048;27;20043;-91
2024/01/26 00:44:29;;;;;;;1.30;1.30;;;12.70;99.90;;;;;;5111240;27;20034;-91
2024/01/26 00:46:55;;;;;;;1.20;1.20;;;11.70;99.90;;;;;;5095186;27;20647;-90
2024/01/26 00:49:21;;;;;;;1.67;1.58;;;12.20;99.90;;;;;;5095045;27;20047;-91
2024/01/26 00:51:47;;;;;;;1.30;1.30;;;12.40;99.90;;;;;;5093300;27;20632;-89
2024/01/26 00:54:13;;;;;;;1.60;1.50;;;12.40;99.90;;;;;;5093900;28;20092;-89
2024/01/26 00:56:38;;;;;;;1.17;1.17;;;12.60;99.90;;;;;;5093741;28;20128;-90
2024/01/26 00:59:05;;;;;;;1.42;1.40;;;12.60;99.90;;;;;;5093825;28;20127;-91
2024/01/26 01:01:31;;;;;;;1.65;1.55;;;12.80;99.90;;;;;;5106718;28;20076;-90
2024/01/26 01:03:59;;;;;;;1.92;1.83;;;12.70;99.90;;;;;;5091622;27;20066;-90
2024/01/26 01:06:26;;;;;;;1.50;1.40;;;11.70;99.90;;;;;;5113816;27;20079;-91
2024/01/26 01:08:52;;;;;;;1.52;1.42;;;12.30;99.90;;;;;;5099112;27;20111;-90
2024/01/26 01:11:17;;;;;;;1.52;1.42;;;12.60;99.90;;;;;;5114971;27;20511;-91
2024/01/26 01:13:43;;;;;;;1.92;1.83;;;12.80;99.90;;;;;;5099153;27;20054;-89
2024/01/26 01:16:12;;;;;;;1.52;1.42;;;12.90;99.90;;;;;;5097159;27;20480;-90
2024/01/26 01:18:38;;;;;;;1.38;1.38;;;11.80;99.90;;;;;;5097896;27;20039;-90
2024/01/26 01:21:04;;;;;;;1.65;1.55;;;12.30;99.90;;;;;;5099169;27;20488;-90
2024/01/26 01:23:30;;;;;;;1.52;1.42;;;12.10;99.90;;;;;;5099486;27;20132;-89
2024/01/26 01:25:56;;;;;;;1.30;1.30;;;12.80;99.90;;;;;;5096739;27;20476;-92
2024/01/26 01:28:22;;;;;;;1.48;1.40;;;12.70;99.90;;;;;;5099003;27;20104;-91
2024/01/26 01:30:47;;;;;;;1.75;1.65;;;11.80;99.90;;;;;;5097007;27;20047;-91
2024/01/26 01:33:13;;;;;;;1.35;1.35;;;13.00;99.90;;;;;;5098390;27;20062;-91
2024/01/26 01:35:39;;;;;;;1.75;1.65;;;11.80;99.90;;;;;;5097686;27;20039;-91
2024/01/26 01:38:04;;;;;;;1.83;1.73;;;13.00;99.90;;;;;;5099759;27;20051;-90
2024/01/26 01:40:30;;;;;;;2.05;1.95;;;11.80;99.90;;;;;;5096903;27;20552;-91
2024/01/26 01:42:58;;;;;;;1.35;1.35;;;12.40;99.90;;;;;;5095640;27;20118;-91
2024/01/26 01:45:24;;;;;;;1.60;1.50;;;12.50;99.90;;;;;;5117888;27;20093;-91
2024/01/26 01:47:50;;;;;;;1.70;1.60;;;11.80;99.90;;;;;;5100846;27;20492;-91
2024/01/26 01:50:16;;;;;;;1.65;1.55;;;13.00;99.90;;;;;;5116304;27;20043;-91
2024/01/26 01:52:42;;;;;;;2.10;2.00;;;12.00;99.90;;;;;;5113775;27;20457;-92
2024/01/26 01:55:10;;;;;;;1.65;1.55;;;12.10;99.90;;;;;;5098519;27;20039;-92
2024/01/26 01:57:39;;;;;;;1.88;1.77;;;12.20;99.90;;;;;;5100364;27;20131;-91
2024/01/26 02:00:07;;;;;;;1.90;1.80;;;13.10;99.90;;;;;;5098671;27;20050;-91
2024/01/26 02:02:34;;;;;;;1.77;1.67;;;12.10;99.90;;;;;;5097933;27;20041;-90
2024/01/26 02:04:59;;;;;;;1.83;1.73;;;12.90;99.90;;;;;;5099736;27;20054;-90
2024/01/26 02:07:25;;;;;;;1.95;1.85;;;12.20;99.90;;;;;;5098629;27;20043;-92
2024/01/26 02:09:51;;;;;;;1.73;1.63;;;12.70;99.90;;;;;;5098723;27;20035;-91
2024/01/26 02:12:17;;;;;;;1.88;1.77;;;11.90;99.90;;;;;;5096201;27;20584;-92
2024/01/26 02:14:44;;;;;;;1.80;1.70;;;13.10;99.90;;;;;;5097522;28;20061;-92
2024/01/26 02:17:09;;;;;;;2.22;2.13;;;12.70;99.90;;;;;;5095832;27;20043;-92
2024/01/26 02:19:35;;;;;;;1.88;1.77;;;12.90;99.90;;;;;;5098240;27;20091;-92
2024/01/26 02:22:01;;;;;;;1.95;1.85;;;12.00;99.90;;;;;;5096063;27;20051;-90
2024/01/26 02:24:27;;;;;;;1.67;1.58;;;12.30;99.90;;;;;;5098171;27;20515;-92
2024/01/26 02:26:52;;;;;;;1.85;1.75;;;13.10;99.90;;;;;;5097379;27;20111;-91
2024/01/26 02:29:18;;;;;;;1.75;1.65;;;12.00;99.90;;;;;;5097112;27;20035;-92
2024/01/26 02:31:44;;;;;;;2.15;2.05;;;12.00;99.90;;;;;;5096695;27;20039;-92
2024/01/26 02:34:12;;;;;;;2.15;2.05;;;13.00;99.90;;;;;;5093972;27;20464;-92
2024/01/26 02:36:38;;;;;;;1.92;1.83;;;12.90;99.90;;;;;;5097249;27;20043;-92
2024/01/26 02:39:05;;;;;;;1.83;1.73;;;12.90;99.90;;;;;;5097791;27;20039;-91
2024/01/26 02:41:32;;;;;;;1.95;1.85;;;13.10;99.90;;;;;;5102962;27;20081;-92
2024/01/26 02:43:58;;;;;;;2.38;2.28;;;12.60;99.90;;;;;;5095649;27;20051;-93
2024/01/26 02:46:23;;;;;;;2.17;2.08;;;12.20;99.90;;;;;;5097263;27;20576;-88
2024/01/26 02:48:49;;;;;;;2.05;1.95;;;13.10;99.90;;;;;;5114686;27;20078;-92
2024/01/26 02:51:15;;;;;;;2.05;1.95;;;12.30;99.90;;;;;;5095406;27;20503;-91
2024/01/26 02:53:41;;;;;;;2.53;2.42;;;12.90;99.90;;;;;;5112082;27;20039;-89
2024/01/26 02:56:10;;;;;;;1.95;1.85;;;13.20;99.90;;;;;;5094790;27;20039;-90
2024/01/26 02:58:36;;;;;;;2.15;2.05;;;12.50;99.90;;;;;;5095066;27;20042;-89
2024/01/26 03:01:02;;;;;;;2.05;1.95;;;13.10;99.90;;;;;;5094202;27;20039;-90
2024/01/26 03:03:28;;;;;;;2.10;2.00;;;12.60;99.90;;;;;;5096452;27;20043;-88
2024/01/26 03:05:54;;;;;;;2.30;2.20;;;13.00;99.90;;;;;;5096773;27;20111;-88
2024/01/26 03:08:20;;;;;;;2.28;2.17;;;12.40;99.90;;;;;;5094986;27;20076;-88
2024/01/26 03:10:46;;;;;;;2.47;2.38;;;12.80;99.90;;;;;;5093735;27;20042;-90
2024/01/26 03:13:11;;;;;;;2.40;2.30;;;12.40;99.90;;;;;;5107658;27;20131;-90
2024/01/26 03:15:37;;;;;;;1.85;1.75;;;12.40;99.90;;;;;;5111945;27;20074;-88
2024/01/26 03:18:03;;;;;;;2.47;2.38;;;13.20;99.90;;;;;;5096159;27;20103;-88
2024/01/26 03:20:30;;;;;;;2.47;2.38;;;12.40;99.90;;;;;;5098569;27;20039;-89
2024/01/26 03:22:56;;;;;;;2.30;2.20;;;12.60;99.90;;;;;;5095742;27;20046;-89
2024/01/26 03:25:22;;;;;;;1.98;1.88;;;13.20;99.90;;;;;;5092707;27;20044;-87
2024/01/26 03:27:48;;;;;;;2.25;2.15;;;12.90;99.90;;;;;;5095016;27;20039;-86
2024/01/26 03:30:14;;;;;;;2.35;2.25;;;13.10;99.90;;;;;;5110742;27;20135;-90
2024/01/26 03:32:40;;;;;;;2.28;2.17;;;12.60;99.90;;;;;;5097620;27;20047;-89
2024/01/26 03:35:06;;;;;;;2.25;2.15;;;12.50;99.90;;;;;;5097901;27;20046;-87
2024/01/26 03:37:31;;;;;;;2.58;2.47;;;12.90;99.90;;;;;;5114167;27;20039;-88
2024/01/26 03:39:57;;;;;;;2.35;2.25;;;12.50;99.90;;;;;;5111938;27;20531;-90
2024/01/26 03:42:23;;;;;;;2.40;2.30;;;13.20;99.90;;;;;;5113431;27;20078;-88
2024/01/26 03:44:48;;;;;;;3.03;2.85;;;13.20;99.90;;;;;;5110444;27;20084;-89
2024/01/26 03:47:14;;;;;;;2.50;2.40;;;13.10;99.90;;;;;;5094685;27;20481;-90
2024/01/26 03:49:49;;;;;;;2.53;2.42;;;13.00;99.90;;;;;;5096211;27;20051;-89
2024/01/26 03:52:15;;;;;;;2.47;2.38;;;12.70;99.90;;;;;;5093737;27;20103;-89
2024/01/26 03:54:40;;;;;;;2.20;2.10;;;12.70;99.90;;;;;;5110878;27;20039;-88
2024/01/26 03:57:06;;;;;;;2.70;2.58;;;12.50;99.90;;;;;;5112128;27;20495;-90
2024/01/26 03:59:32;;;;;;;5.05;4.70;;;13.10;99.90;;;;;;5095009;27;20093;-89
2024/01/26 04:01:58;;;;;;;2.85;2.75;;;13.10;99.90;;;;;;5092630;27;20047;-88
2024/01/26 04:04:24;;;;;;;2.50;2.40;;;13.00;99.90;;;;;;5095912;27;20096;-88
2024/01/26 04:06:49;;;;;;;2.63;2.53;;;12.60;99.90;;;;;;5111390;27;20058;-86
2024/01/26 04:09:15;;;;;;;2.35;2.25;;;12.80;99.90;;;;;;5094824;27;20620;-86
2024/01/26 04:11:41;;;;;;;2.63;2.53;;;13.20;99.90;;;;;;5112722;27;20050;-88
2024/01/26 04:14:06;;;;;;;2.58;2.47;;;12.90;99.90;;;;;;5091593;27;21819;-86
2024/01/26 04:16:32;;;;;;;2.22;2.13;;;12.60;99.90;;;;;;5091952;27;20039;-89
2024/01/26 04:18:58;;;;;;;2.85;2.75;;;13.20;99.90;;;;;;5110915;27;20039;-92
2024/01/26 04:21:24;;;;;;;2.17;2.08;;;12.80;99.90;;;;;;5093575;27;20091;-89
2024/01/26 04:23:50;;;;;;;2.70;2.60;;;12.90;99.90;;;;;;5092834;27;20042;-87
2024/01/26 04:26:17;;;;;;;2.80;2.70;;;12.70;99.90;;;;;;5110478;27;20381;-90
2024/01/26 04:28:43;;;;;;;3.05;2.92;;;12.70;99.90;;;;;;5092686;27;20038;-89
2024/01/26 04:31:08;;;;;;;3.00;2.88;;;13.30;99.90;;;;;;5111069;27;20503;-88
2024/01/26 04:33:34;;;;;;;2.42;2.33;;;12.90;99.90;;;;;;5107171;27;20118;-88
2024/01/26 04:36:00;;;;;;;2.70;2.60;;;12.70;99.90;;;;;;5092854;27;20066;-88
2024/01/26 04:38:26;;;;;;;2.40;2.30;;;13.30;99.90;;;;;;5092819;28;20134;-90
2024/01/26 04:40:51;;;;;;;2.97;2.85;;;12.90;99.90;;;;;;5093511;27;20491;-87
2024/01/26 04:43:18;;;;;;;3.05;2.92;;;13.40;99.90;;;;;;5090696;28;20066;-88
2024/01/26 04:45:45;;;;;;;3.28;3.08;;;13.10;99.90;;;;;;5108828;27;20061;-88
2024/01/26 04:48:11;;;;;;;2.67;2.58;;;13.60;99.90;;;;;;5092470;28;20095;-87
2024/01/26 04:50:37;;;;;;;3.20;3.05;;;13.20;99.90;;;;;;5110503;27;20050;-87
2024/01/26 04:53:03;;;;;;;3.03;2.90;;;13.20;99.90;;;;;;5106948;28;20046;-88
2024/01/26 04:55:29;;;;;;;3.10;2.95;;;13.60;99.90;;;;;;5108479;28;20108;-86
2024/01/26 04:57:55;;;;;;;3.20;3.05;;;13.60;99.90;;;;;;5107697;28;20071;-88
2024/01/26 05:00:21;;;;;;;3.45;3.25;;;12.90;99.90;;;;;;5109436;28;20043;-87
2024/01/26 05:02:46;;;;;;;3.08;2.95;;;13.50;99.90;;;;;;5108032;28;20050;-88
2024/01/26 05:05:13;;;;;;;3.20;3.05;;;13.40;99.90;;;;;;5091017;28;20039;-88
2024/01/26 05:07:39;;;;;;;2.95;2.85;;;13.20;99.90;;;;;;5094177;28;20047;-90
2024/01/26 05:10:05;;;;;;;3.30;3.15;;;13.40;99.90;;;;;;5109246;27;20043;-88
2024/01/26 05:12:31;;;;;;;2.97;2.88;;;13.60;99.90;;;;;;5091374;28;20126;-87
2024/01/26 05:14:57;;;;;;;3.45;3.25;;;13.60;99.90;;;;;;5109508;27;20061;-88
2024/01/26 05:17:23;;;;;;;3.13;2.97;;;13.00;99.90;;;;;;5107512;28;20043;-87
2024/01/26 05:19:49;;;;;;;3.55;3.35;;;13.60;99.90;;;;;;5092084;27;20051;-87
2024/01/26 05:22:14;;;;;;;3.00;2.88;;;13.00;99.90;;;;;;5106160;28;20058;-87
2024/01/26 05:24:40;;;;;;;3.45;3.25;;;13.00;99.90;;;;;;5089547;28;20070;-85
2024/01/26 05:27:07;;;;;;;3.80;3.60;;;13.40;99.90;;;;;;5105212;28;20488;-88
2024/01/26 05:29:33;;;;;;;3.47;3.28;;;13.70;99.90;;;;;;5091613;27;20039;-89
2024/01/26 05:31:59;;;;;;;3.55;3.35;;;13.10;99.90;;;;;;5105341;27;20137;-87
2024/01/26 05:34:24;;;;;;;3.50;3.30;;;13.10;99.90;;;;;;5090889;28;20137;-87
2024/01/26 05:36:50;;;;;;;3.45;3.25;;;13.80;99.90;;;;;;5108838;28;20478;-87
2024/01/26 05:39:16;;;;;;;3.47;3.28;;;13.10;99.90;;;;;;5108235;27;20139;-85
2024/01/26 05:41:42;;;;;;;3.40;3.20;;;13.40;99.90;;;;;;5090705;28;20491;-86
2024/01/26 05:44:07;;;;;;;3.70;3.50;;;13.30;99.90;;;;;;5089141;27;20042;-87
2024/01/26 05:46:33;;;;;;;4.22;4.03;;;13.20;99.90;;;;;;5089405;28;20043;-89
2024/01/26 05:48:59;;;;;;;3.85;3.65;;;13.90;99.90;;;;;;5106894;27;20031;-88
2024/01/26 05:51:25;;;;;;;3.45;3.25;;;13.40;99.90;;;;;;5091952;27;20420;-87
2024/01/26 05:53:52;;;;;;;3.95;3.75;;;13.20;99.90;;;;;;5107072;27;20115;-86
2024/01/26 05:56:18;;;;;;;3.75;3.55;;;13.20;99.90;;;;;;5109381;27;20051;-86
2024/01/26 05:58:44;;;;;;;3.75;3.55;;;13.80;99.90;;;;;;5092354;27;20045;-88
2024/01/26 06:01:10;;;;;;;3.83;3.63;;;13.40;99.90;;;;;;5110132;27;20045;-87
2024/01/26 06:03:36;;;;;;;4.05;3.85;;;13.80;99.90;;;;;;5108004;27;20047;-86
2024/01/26 06:06:03;;;;;;;4.22;4.03;;;13.30;99.90;;;;;;5106104;27;20043;-86
2024/01/26 06:08:29;;;;;;;3.97;3.78;;;13.30;99.90;;;;;;5112048;27;21528;-89
2024/01/26 06:10:58;;;;;;;4.60;4.38;;;13.90;99.90;;;;;;5091337;27;20043;-86
2024/01/26 06:13:24;;;;;;;4.43;4.22;;;14.00;99.90;;;;;;5093182;27;20556;-87
2024/01/26 06:15:51;;;;;;;3.70;3.50;;;13.30;99.90;;;;;;5096189;27;20035;-88
2024/01/26 06:18:16;;;;;;;3.60;3.40;;;13.90;99.90;;;;;;5112119;27;20039;-87
2024/01/26 06:20:42;;;;;;;3.95;3.75;;;13.30;99.90;;;;;;5111582;27;20069;-88
2024/01/26 06:23:08;;;;;;;4.55;4.35;;;13.30;99.90;;;;;;5108449;27;20043;-86
2024/01/26 06:25:34;;;;;;;4.35;4.15;;;14.00;99.90;;;;;;5091280;27;20162;-87
2024/01/26 06:28:00;;;;;;;4.07;3.88;;;13.60;99.90;;;;;;5109096;27;20039;-87
2024/01/26 06:30:25;;;;;;;4.28;4.07;;;14.00;99.90;;;;;;5093172;27;20452;-87
2024/01/26 06:32:51;;;;;;;4.85;4.60;;;13.30;99.90;;;;;;5110677;27;20058;-86
2024/01/26 06:35:17;;;;;;;4.15;3.95;;;13.50;99.90;;;;;;5108958;27;20054;-88
2024/01/26 06:37:44;;;;;;;3.97;3.78;;;13.90;99.90;;;;;;5110328;27;20115;-88
2024/01/26 06:40:10;;;;;;;3.97;3.78;;;13.40;99.90;;;;;;5108334;27;20047;-87
2024/01/26 06:42:40;;;;;;;4.70;4.50;;;13.60;99.90;;;;;;5090029;27;20039;-87
2024/01/26 06:45:10;;;;;;;4.90;4.65;;;13.60;99.90;;;;;;5090054;27;20043;-86
2024/01/26 06:47:35;;;;;;;4.68;4.45;;;14.00;99.90;;;;;;5107193;27;20103;-86
2024/01/26 06:50:03;;;;;;;4.25;4.05;;;13.90;99.90;;;;;;5111557;27;20050;-90
2024/01/26 06:52:29;;;;;;;4.38;4.18;;;14.00;99.90;;;;;;5109266;27;20093;-89
2024/01/26 06:54:54;;;;;;;4.43;4.22;;;13.70;99.90;;;;;;5092385;27;20062;-90
2024/01/26 06:57:20;;;;;;;4.95;4.72;;;13.90;99.90;;;;;;5094261;27;20051;-87
2024/01/26 06:59:46;;;;;;;4.45;4.25;;;13.50;99.90;;;;;;5110737;27;20115;-87
2024/01/26 07:02:12;;;;;;;4.28;4.07;;;13.90;99.90;;;;;;5092477;27;20602;-89
2024/01/26 07:04:37;;;;;;;4.63;4.43;;;13.50;99.90;;;;;;5112785;27;20042;-87
2024/01/26 07:07:03;;;;;;;4.55;4.35;;;13.90;99.90;;;;;;5094798;27;20035;-88
2024/01/26 07:09:29;;;;;;;4.38;4.18;;;13.10;99.90;;;;;;5112533;27;20396;-87
2024/01/26 07:11:55;;;;;;;4.65;4.45;;;14.10;99.90;;;;;;5096216;27;20130;-89
2024/01/26 07:14:20;;;;;;;4.95;4.68;;;13.60;99.90;;;;;;5111293;27;20039;-87
2024/01/26 07:16:47;;;;;;;4.50;4.30;;;14.10;99.90;;;;;;5095585;27;20050;-90
2024/01/26 07:19:13;;;;;;;4.35;4.15;;;13.70;99.90;;;;;;5094357;27;20106;-88
2024/01/26 07:21:39;;;;;;;4.80;4.55;;;14.10;99.90;;;;;;5111227;27;20043;-90
2024/01/26 07:24:05;;;;;;;4.68;4.47;;;13.00;99.90;;;;;;5096694;27;20047;-90
2024/01/26 07:26:30;;;;;;;4.00;3.80;;;14.20;99.90;;;;;;5097871;27;20039;-90
2024/01/26 07:28:56;;;;;;;4.78;4.57;;;14.10;99.90;;;;;;5096837;27;20054;-91
2024/01/26 07:31:22;;;;;;;4.15;3.95;;;14.10;99.90;;;;;;5093124;27;20043;-90
2024/01/26 07:33:48;;;;;;;4.32;4.13;;;13.10;99.90;;;;;;5113803;27;20050;-90
2024/01/26 07:36:13;;;;;;;4.47;4.28;;;13.10;99.90;;;;;;5096630;27;20043;-92
2024/01/26 07:38:39;;;;;;;4.28;4.07;;;14.00;99.90;;;;;;5096302;27;20050;-89
2024/01/26 07:41:05;;;;;;;4.57;4.38;;;13.10;99.90;;;;;;5111469;27;20043;-92
2024/01/26 07:43:31;;;;;;;4.28;4.07;;;13.20;99.90;;;;;;5095723;27;20510;-92
2024/01/26 07:45:56;;;;;;;4.53;4.32;;;13.40;99.90;;;;;;5094478;27;20723;-89
2024/01/26 07:48:22;;;;;;;5.20;4.90;;;13.40;99.90;;;;;;5094022;27;20047;-91
2024/01/26 07:50:48;;;;;;;4.30;4.10;;;14.10;99.90;;;;;;5112434;27;20039;-92
2024/01/26 07:53:14;;;;;;;4.93;4.63;;;14.00;99.90;;;;;;5111569;27;20045;-90
2024/01/26 07:55:40;;;;;;;5.18;4.88;;;14.20;99.90;;;;;;5097312;27;20039;-91
2024/01/26 07:58:06;;;;;;;5.20;4.90;;;14.00;99.90;;;;;;5096728;27;20047;-86
2024/01/26 08:00:32;;;;;;;4.82;4.53;;;13.60;99.90;;;;;;5110553;27;20047;-90
2024/01/26 08:02:59;;;;;;;4.90;4.60;;;13.10;99.90;;;;;;5095819;27;20050;-94
2024/01/26 08:05:27;;;;;;;5.15;4.85;;;14.10;99.90;;;;;;5094943;27;20079;-91
2024/01/26 08:07:53;;;;;;;5.13;4.82;;;14.10;99.90;;;;;;5095741;27;20075;-89
2024/01/26 08:10:34;;;;;;;4.65;4.35;;;14.00;99.90;;;;;;5113065;27;20099;-89
2024/01/26 08:13:00;;;;;;;5.05;4.75;;;14.30;99.90;;;;;;5094014;27;20038;-92
2024/01/26 08:15:26;;;;;;;4.82;4.53;;;13.40;99.90;;;;;;5094932;27;20496;-91
2024/01/26 08:17:51;;;;;;;4.65;4.40;;;13.10;99.90;;;;;;5093920;27;20106;-88
2024/01/26 08:20:17;;;;;;;4.95;4.65;;;13.40;99.90;;;;;;5092478;27;20130;-89
2024/01/26 08:22:43;;;;;;;5.05;4.75;;;14.00;99.90;;;;;;5095837;27;20039;-91
2024/01/26 08:25:11;;;;;;;4.90;4.60;;;14.30;99.90;;;;;;5097108;27;20035;-88
2024/01/26 08:27:37;;;;;;;4.70;4.40;;;13.10;99.90;;;;;;5092579;27;20043;-93
2024/01/26 08:30:04;;;;;;;5.43;5.13;;;13.10;99.90;;;;;;5096636;27;20073;-88
2024/01/26 08:32:30;;;;;;;4.95;4.65;;;14.30;99.90;;;;;;5111077;27;20051;-90
2024/01/26 08:34:56;;;;;;;5.60;5.30;;;14.00;99.90;;;;;;5112851;27;20051;-92
2024/01/26 08:37:22;;;;;;;5.68;5.38;;;14.40;99.90;;;;;;5096501;27;20442;-90
2024/01/26 08:39:48;;;;;;;5.43;5.13;;;14.40;99.90;;;;;;5093676;27;20044;-91
2024/01/26 08:42:14;;;;;;;5.63;5.32;;;13.40;99.90;;;;;;5095264;27;20047;-88
2024/01/26 08:44:39;;;;;;;5.63;5.32;;;13.60;99.90;;;;;;5094778;27;20039;-89
2024/01/26 08:47:05;;;;;;;5.00;4.70;;;14.40;99.90;;;;;;5094094;27;20138;-88
2024/01/26 08:49:31;;;;;;;5.45;5.15;;;14.50;99.90;;;;;;5093159;27;20046;-93
2024/01/26 08:51:58;;;;;;;5.88;5.57;;;13.20;99.90;;;;;;5094471;28;20039;-89
2024/01/26 08:54:24;;;;;;;5.72;5.43;;;14.20;99.90;;;;;;5088810;27;20131;-88
2024/01/26 08:56:50;;;;;;;6.47;6.07;;;13.50;99.90;;;;;;5092951;28;20122;-88
2024/01/26 08:59:16;;;;;;;5.72;5.43;;;14.50;99.90;;;;;;5110483;27;20047;-90
2024/01/26 09:01:42;;;;;;;5.70;5.40;;;13.30;99.90;;;;;;5091194;28;20102;-93
2024/01/26 09:04:08;;;;;;;5.88;5.57;;;14.00;99.90;;;;;;5090348;27;20043;-93
2024/01/26 09:06:37;;;;;;;5.47;5.18;;;13.60;99.90;;;;;;5096245;28;20043;-92
2024/01/26 09:09:04;;;;;;;5.97;5.68;;;13.70;99.90;;;;;;5097094;27;20484;-89
2024/01/26 09:11:30;;;;;;;5.50;5.20;;;13.50;99.90;;;;;;5110943;28;20046;-93
2024/01/26 09:13:59;;;;;;;5.82;5.53;;;14.30;99.90;;;;;;5092403;28;20078;-90
2024/01/26 09:16:24;;;;;;;6.07;5.78;;;13.50;99.90;;;;;;5109554;28;20104;-91
2024/01/26 09:18:51;;;;;;;5.75;5.45;;;14.80;99.90;;;;;;5110497;28;20047;-88
2024/01/26 09:21:23;;;;;;;5.63;5.32;;;14.30;99.90;;;;;;5093644;28;20041;-93
2024/01/26 09:23:49;;;;;;;6.07;5.78;;;14.80;99.90;;;;;;5091415;27;20039;-91
2024/01/26 09:26:15;;;;;;;5.88;5.57;;;13.80;99.90;;;;;;5098846;27;20225;-87
2024/01/26 09:28:40;;;;;;;5.88;5.57;;;14.40;99.90;;;;;;5097638;27;20174;-88
2024/01/26 09:31:06;;;;;;;6.40;6.07;;;14.60;99.90;;;;;;5098098;27;20068;-90
2024/01/26 09:33:32;;;;;;;6.43;6.13;;;15.00;99.90;;;;;;5094819;27;20039;-88
2024/01/26 09:35:58;;;;;;;6.28;5.95;;;14.90;99.90;;;;;;5097186;27;20066;-90
2024/01/26 09:38:25;;;;;;;7.13;6.72;;;14.10;99.90;;;;;;5097658;27;20047;-88
2024/01/26 09:40:51;;;;;;;6.97;6.57;;;13.90;99.90;;;;;;5096102;27;20039;-92
2024/01/26 09:43:17;;;;;;;7.20;6.80;;;14.70;99.90;;;;;;5097485;27;20127;-91
2024/01/26 09:45:50;;;;;;;7.45;7.05;;;14.00;99.90;;;;;;5096208;27;20563;-92
2024/01/26 09:48:19;;;;;;;8.73;8.30;;;14.00;99.90;;;;;;5107592;27;20054;-88
2024/01/26 09:50:50;;;;;;;7.32;6.93;;;15.00;99.90;;;;;;5107716;27;20292;-87
2024/01/26 09:53:17;;;;;;;9.18;8.68;;;14.60;99.90;;;;;;5096272;27;20372;-87
2024/01/26 09:55:45;;;;;;;13.15;12.45;;;13.30;99.90;;;;;;5092837;27;20051;-90
2024/01/26 09:58:11;;;;;;;7.53;7.13;;;13.00;99.90;;;;;;5092866;27;20042;-87
2024/01/26 10:00:37;;;;;;;6.68;6.32;;;12.90;99.90;;;;;;5095774;27;20081;-90
2024/01/26 10:03:03;;;;;;;5.75;5.45;;;12.90;99.90;;;;;;5093125;27;20146;-87
2024/01/26 10:05:30;;;;;;;5.07;4.78;;;12.80;99.90;;;;;;5109061;27;20055;-87
2024/01/26 10:07:56;;;;;;;4.55;4.35;;;12.90;99.90;;;;;;5108078;27;20047;-87
2024/01/26 10:10:23;;;;;;;4.50;4.30;;;12.90;99.90;;;;;;5088652;27;20050;-89
2024/01/26 10:12:50;;;;;;;4.45;4.25;;;12.80;99.90;;;;;;5111305;27;20039;-87
2024/01/26 10:15:16;;;;;;;4.15;3.95;;;12.80;99.90;;;;;;5113062;27;20500;-86
2024/01/26 10:17:43;;;;;;;3.63;3.42;;;12.60;99.90;;;;;;5112650;27;20076;-89
2024/01/26 10:20:14;;;;;;;3.55;3.35;;;12.60;99.90;;;;;;5092204;27;20051;-87
2024/01/26 10:22:41;;;;;;;2.95;2.85;;;12.60;99.90;;;;;;5094510;27;20473;-87
2024/01/26 10:25:08;;;;;;;2.60;2.50;;;12.50;99.90;;;;;;5110611;27;20045;-88
2024/01/26 10:27:34;;;;;;;2.40;2.30;;;12.50;42.70;;;;;;5106317;27;20055;-87
2024/01/26 10:30:01;;;;;;;2.60;2.50;;;12.40;99.90;;;;;;5103988;27;20054;-88
2024/01/26 10:32:31;;;;;;;2.50;2.40;;;12.30;10.80;;;;;;5106934;27;20047;-88
2024/01/26 10:35:04;;;;;;;2.63;2.53;;;12.40;99.90;;;;;;5107137;27;20046;-87
2024/01/26 10:37:31;;;;;;;;;;;12.30;31.80;;;;;;5108032;27;20043;-89
2024/01/26 10:39:58;;;;;;;2.05;1.95;;;12.40;59.60;;;;;;5107586;27;20292;-89
2024/01/26 10:42:26;;;;;;;1.83;1.73;;;12.40;1.00;;;;;;5093611;27;20043;-90
2024/01/26 10:44:54;;;;;;;2.13;2.03;;;12.40;1.00;;;;;;5093908;27;20092;-91
2024/01/26 10:47:21;;;;;;;1.95;1.85;;;12.40;1.00;;;;;;5095019;27;20051;-89
2024/01/26 10:49:50;;;;;;;2.17;2.08;;;12.40;1.00;;;;;;5094961;27;20069;-90
2024/01/26 10:52:19;;;;;;;2.40;2.30;;;12.40;1.00;;;;;;5095382;27;20786;-86
2024/01/26 10:54:51;;;;;;;2.38;2.28;;;12.40;1.00;;;;;;5097334;27;20050;-88
2024/01/26 10:57:19;;;;;;;1.98;1.88;;;12.40;99.90;;;;;;5112623;27;20039;-88
2024/01/26 10:59:46;;;;;;;2.50;2.40;;;12.50;1.00;;;;;;5095629;27;20089;-88
2024/01/26 11:02:27;;;;;;;2.10;2.00;;;12.50;99.90;;;;;;5094702;27;20050;-89
2024/01/26 11:04:53;;;;;;;2.67;2.58;;;12.40;99.90;;;;;;5097751;27;20035;-86
2024/01/26 11:07:20;;;;;;;2.17;2.08;;;12.30;99.90;;;;;;5113540;27;20054;-89
2024/01/26 11:09:46;;;;;;;2.10;2.00;;;12.30;11.10;;;;;;5096528;27;20401;-89
2024/01/26 11:12:38;;;;;;;2.80;2.70;;;12.20;1.00;;;;;;5099144;27;20039;-89
2024/01/26 11:15:15;;;;;;;2.00;1.90;;;12.30;99.90;;;;;;5089455;27;20070;-87
2024/01/26 11:17:53;;;;;;;2.60;2.50;;;12.20;99.90;;;;;;5113528;27;20039;-88
2024/01/26 11:20:26;;;;;;;2.55;2.45;;;12.20;99.90;;;;;;5094024;27;20051;-89
2024/01/26 11:23:21;;;;;;;2.60;2.50;;;12.20;99.90;;;;;;5096285;27;20122;-87
2024/01/26 11:25:50;;;;;;;2.10;2.00;;;12.20;99.90;;;;;;5079502;27;20527;-87
2024/01/26 11:28:29;;;;;;;2.40;2.30;;;12.20;99.90;;;;;;5095550;27;20047;-86
2024/01/26 11:30:57;;;;;;;2.60;2.50;;;12.30;99.90;;;;;;5094933;27;20437;-86
2024/01/26 11:33:23;;;;;;;2.65;2.55;;;12.20;96.30;;;;;;5094439;27;20043;-90
2024/01/26 11:35:50;;;;;;;2.50;2.40;;;12.20;4.10;;;;;;5094936;27;20046;-89
2024/01/26 11:38:17;;;;;;;2.33;2.22;;;12.20;99.90;;;;;;5097043;27;20415;-88
2024/01/26 11:40:43;;;;;;;2.38;2.28;;;12.10;1.00;;;;;;5094699;27;20468;-86
2024/01/26 11:43:10;;;;;;;2.28;2.17;;;12.00;1.00;;;;;;5094424;27;20047;-89
2024/01/26 11:45:46;;;;;;;2.35;2.25;;;12.00;1.00;;;;;;5112271;27;20047;-85
2024/01/26 11:48:14;;;;;;;2.70;2.60;;;12.00;1.00;;;;;;5112983;27;20369;-86
2024/01/26 11:50:42;;;;;;;2.78;2.67;;;12.00;1.00;;;;;;5093502;27;20100;-87
2024/01/26 11:53:08;;;;;;;2.20;2.10;;;11.90;1.00;;;;;;5112502;27;20123;-88
2024/01/26 11:55:35;;;;;;;2.20;2.10;;;11.90;1.00;;;;;;5110079;27;20104;-87
2024/01/26 11:58:01;;;;;;;2.33;2.22;;;11.90;99.90;;;;;;5112868;27;20047;-86
2024/01/26 12:00:30;;;;;;;2.70;2.60;;;11.90;99.90;;;;;;5112460;27;20051;-86
2024/01/26 12:02:56;;;;;;;2.20;2.10;;;11.90;99.90;;;;;;5110888;27;20042;-88
2024/01/26 12:05:22;;;;;;;2.40;2.30;;;11.90;1.00;;;;;;5093272;27;20035;-85
2024/01/26 12:07:48;;;;;;;2.78;2.67;;;11.80;99.90;;;;;;5110690;27;20122;-89
2024/01/26 12:10:16;;;;;;;2.58;2.47;;;11.80;99.90;;;;;;5094602;27;20038;-90
2024/01/26 12:12:43;;;;;;;3.10;2.90;;;11.80;99.90;;;;;;5092360;27;20389;-84
2024/01/26 12:15:10;;;;;;;2.30;2.20;;;11.80;99.90;;;;;;5093618;27;20043;-88
2024/01/26 12:17:36;;;;;;;2.20;2.10;;;11.80;99.90;;;;;;5108201;27;20522;-86
2024/01/26 12:20:05;;;;;;;2.70;2.60;;;11.80;99.90;;;;;;5108096;27;20039;-87
2024/01/26 12:22:32;;;;;;;2.25;2.15;;;11.70;99.90;;;;;;5090677;27;20125;-87
2024/01/26 12:25:02;;;;;;;3.05;2.85;;;11.70;99.90;;;;;;5111131;27;20068;-87
2024/01/26 12:27:28;;;;;;;2.35;2.25;;;11.70;99.90;;;;;;5090910;27;20047;-86
2024/01/26 12:29:54;;;;;;;2.28;2.17;;;11.60;99.90;;;;;;5108342;27;20125;-87
2024/01/26 12:32:20;;;;;;;2.15;2.05;;;11.60;99.90;;;;;;5092410;27;20050;-86
2024/01/26 12:34:46;;;;;;;2.83;2.70;;;11.60;99.90;;;;;;5110007;27;20054;-88
2024/01/26 12:37:12;;;;;;;2.33;2.22;;;11.60;99.90;;;;;;5092524;27;20043;-87
2024/01/26 12:39:38;;;;;;;2.60;2.50;;;11.60;99.90;;;;;;5109391;27;20058;-87
2024/01/26 12:42:04;;;;;;;2.25;2.15;;;11.60;99.90;;;;;;5109107;27;20046;-85
2024/01/26 12:44:31;;;;;;;2.10;2.00;;;11.60;99.90;;;;;;5094729;27;20035;-86